createdAt,value
2019-01-04T00:02:40.968Z,2.83
2019-01-04T00:07:59.843Z,2.81
2019-01-04T00:13:18.375Z,2.80
2019-01-04T00:18:37.000Z,2.76
2019-01-04T00:23:55.536Z,2.74
2019-01-04T00:29:14.076Z,2.73
2019-01-04T00:34:32.697Z,2.69
2019-01-04T00:39:51.242Z,2.76
2019-01-04T00:45:10.123Z,2.80
2019-01-04T00:50:28.927Z,2.76
2019-01-04T00:56:26.255Z,2.80
2019-01-04T01:02:24.701Z,2.82
2019-01-04T01:08:21.752Z,2.74
2019-01-04T01:14:20.205Z,2.69
2019-01-04T01:20:17.254Z,2.78
2019-01-04T01:26:14.305Z,2.77
2019-01-04T01:32:11.374Z,2.81
2019-01-04T01:38:09.768Z,2.69
2019-01-04T01:44:06.825Z,2.73
2019-01-04T01:50:03.897Z,2.64
2019-01-04T01:55:22.376Z,2.66
2019-01-04T02:11:42.001Z,2.55
2019-01-04T02:22:30.875Z,2.40
2019-01-04T02:27:49.348Z,2.43
2019-01-04T02:33:07.824Z,2.42
2019-01-04T02:43:56.954Z,2.47
2019-01-04T02:49:15.491Z,2.43
2019-01-04T02:54:33.973Z,2.38
2019-01-04T02:59:52.635Z,2.44
2019-01-04T03:05:11.108Z,2.51
2019-01-04T03:10:29.641Z,2.47
2019-01-04T03:15:48.171Z,2.52
2019-01-04T03:21:06.635Z,2.52
2019-01-04T03:26:25.092Z,2.46
2019-01-04T03:31:43.622Z,2.41
2019-01-04T03:37:02.118Z,2.44
2019-01-04T03:42:20.729Z,2.45
2019-01-04T03:47:39.214Z,2.52
2019-01-04T03:52:57.759Z,2.66
2019-01-04T03:58:16.218Z,2.48
2019-01-04T04:03:34.773Z,2.45
2019-01-04T04:08:53.314Z,2.46
2019-01-04T04:14:11.781Z,2.45
2019-01-04T04:19:30.254Z,2.50
2019-01-04T04:24:48.721Z,2.46
2019-01-04T04:30:26.544Z,2.46
2019-01-04T04:35:45.395Z,2.40
2019-01-04T04:41:03.941Z,2.48
2019-01-04T04:46:22.401Z,2.57
2019-01-04T04:57:11.328Z,2.71
2019-01-04T05:02:29.872Z,2.70
2019-01-04T05:07:48.427Z,2.69
2019-01-04T05:13:06.906Z,2.68
2019-01-04T05:18:25.459Z,2.71
2019-01-04T05:23:43.998Z,2.69
2019-01-04T05:29:02.694Z,2.76
2019-01-04T05:34:21.470Z,2.75
2019-01-04T05:39:39.939Z,2.78
2019-01-04T05:44:58.407Z,2.91
2019-01-04T05:50:16.944Z,2.87
2019-01-04T05:55:35.476Z,2.83
2019-01-04T06:00:54.196Z,2.82
2019-01-04T06:06:12.732Z,2.79
2019-01-04T06:11:31.414Z,2.72
2019-01-04T06:16:49.890Z,2.62
2019-01-04T06:22:08.727Z,2.60
2019-01-04T06:27:27.185Z,2.66
2019-01-04T06:32:45.737Z,2.63
2019-01-04T06:38:04.263Z,2.67
2019-01-04T06:43:22.746Z,2.65
2019-01-04T06:48:41.218Z,2.76
2019-01-04T06:53:59.692Z,2.76
2019-01-04T06:59:18.166Z,2.77
2019-01-04T07:04:36.674Z,2.81
2019-01-04T07:09:55.103Z,2.80
2019-01-04T07:15:13.653Z,2.72
2019-01-04T07:20:32.197Z,2.85
2019-01-04T07:25:50.740Z,2.85
2019-01-04T07:31:09.270Z,2.78
2019-01-04T07:36:27.743Z,2.87
2019-01-04T07:47:18.663Z,2.84
2019-01-04T07:52:37.276Z,2.83
2019-01-04T07:57:55.831Z,2.74
2019-01-04T08:03:14.364Z,2.76
2019-01-04T08:14:05.420Z,2.68
2019-01-04T08:19:23.894Z,2.79
2019-01-04T08:24:42.366Z,3.16
2019-01-04T08:30:00.840Z,3.02
2019-01-04T08:35:19.390Z,2.97
2019-01-04T08:40:37.864Z,2.98
2019-01-04T08:45:56.582Z,2.96
2019-01-04T08:51:15.129Z,3.00
2019-01-04T08:56:33.664Z,3.11
2019-01-04T09:01:52.138Z,3.09
2019-01-04T09:12:39.520Z,3.25
2019-01-04T09:17:58.060Z,3.27
2019-01-04T09:23:16.677Z,3.29
2019-01-04T09:28:35.383Z,3.19
2019-01-04T09:33:54.204Z,3.28
2019-01-04T09:39:12.744Z,3.32
2019-01-04T09:44:31.289Z,3.40
2019-01-04T09:49:49.835Z,3.49
2019-01-04T09:55:08.438Z,3.67
2019-01-04T10:00:26.943Z,3.60
2019-01-04T10:05:45.487Z,3.59
2019-01-04T10:11:04.109Z,3.57
2019-01-04T10:16:22.590Z,3.50
2019-01-04T10:21:41.090Z,3.50
2019-01-04T10:26:59.642Z,3.41
2019-01-04T10:32:18.466Z,3.45
2019-01-04T10:37:37.016Z,3.44
2019-01-04T10:42:55.658Z,3.37
2019-01-04T10:48:14.202Z,3.39
2019-01-04T10:53:32.679Z,3.42
2019-01-04T10:58:51.369Z,3.52
2019-01-04T11:04:10.223Z,3.49
2019-01-04T11:09:28.843Z,3.58
2019-01-04T11:14:47.450Z,3.61
2019-01-04T11:20:09.482Z,3.59
2019-01-04T11:25:55.175Z,3.57
2019-01-04T11:31:25.466Z,3.62
2019-01-04T11:37:03.231Z,3.67
2019-01-04T11:42:51.767Z,3.59
2019-01-04T11:48:13.548Z,3.53
2019-01-04T11:53:32.092Z,3.45
2019-01-04T11:58:51.051Z,3.68
2019-01-04T12:04:09.531Z,3.52
2019-01-04T12:09:28.091Z,3.59
2019-01-04T12:14:46.632Z,3.58
2019-01-04T12:20:07.470Z,3.68
2019-01-04T12:25:26.019Z,3.64
2019-01-04T12:30:44.556Z,3.63
2019-01-04T12:36:03.024Z,3.63
2019-01-04T12:41:21.506Z,3.64
2019-01-04T12:46:40.106Z,3.58
2019-01-04T12:51:58.602Z,3.54
2019-01-04T12:57:17.056Z,3.52
2019-01-04T13:02:36.014Z,3.53
2019-01-04T13:07:54.525Z,3.45
2019-01-04T13:13:13.215Z,3.43
2019-01-04T13:18:31.761Z,3.35
2019-01-04T13:23:50.294Z,3.31
2019-01-04T13:29:08.870Z,3.27
2019-01-04T13:34:27.409Z,3.26
2019-01-04T13:39:45.953Z,3.30
2019-01-04T13:45:05.666Z,3.23
2019-01-04T13:50:24.279Z,3.18
2019-01-04T13:55:43.168Z,3.16
2019-01-04T14:01:01.655Z,3.19
2019-01-04T14:06:20.125Z,3.24
2019-01-04T14:11:38.690Z,3.27
2019-01-04T14:16:57.384Z,3.28
2019-01-04T14:22:15.876Z,3.28
2019-01-04T14:27:35.345Z,3.33
2019-01-04T14:32:53.820Z,3.30
2019-01-04T14:38:12.292Z,3.28
2019-01-04T14:43:30.773Z,3.52
2019-01-04T14:48:49.323Z,3.34
2019-01-04T14:54:07.935Z,3.19
2019-01-04T14:59:26.427Z,3.16
2019-01-04T15:04:44.971Z,3.09
2019-01-04T15:10:03.983Z,3.06
2019-01-04T15:15:22.776Z,3.11
2019-01-04T15:20:41.336Z,3.05
2019-01-04T15:25:59.952Z,3.05
2019-01-04T15:31:18.496Z,3.03
2019-01-04T15:36:36.979Z,3.01
2019-01-04T15:41:55.525Z,2.98
2019-01-04T15:47:14.005Z,3.06
2019-01-04T15:52:32.544Z,3.04
2019-01-04T15:57:51.036Z,3.00
2019-01-04T16:03:09.498Z,3.03
2019-01-04T16:08:28.059Z,3.02
2019-01-04T16:13:46.593Z,3.05
2019-01-04T16:19:05.199Z,2.98
2019-01-04T16:24:23.744Z,3.01
2019-01-04T16:35:38.310Z,3.06
2019-01-04T16:40:56.916Z,3.03
2019-01-04T16:46:15.448Z,3.04
2019-01-04T16:51:34.045Z,2.96
2019-01-04T16:56:52.603Z,2.95
2019-01-04T17:02:11.651Z,2.97
2019-01-04T17:07:30.199Z,2.96
2019-01-04T17:12:48.797Z,2.94
2019-01-04T17:18:07.341Z,2.97
2019-01-04T17:23:25.906Z,2.91
2019-01-04T17:28:44.369Z,2.97
2019-01-04T17:34:02.995Z,2.94
2019-01-04T17:39:21.757Z,2.90
2019-01-04T17:44:40.314Z,2.91
2019-01-04T17:49:58.806Z,2.96
2019-01-04T17:55:17.596Z,2.97
2019-01-04T18:00:36.063Z,3.04
2019-01-04T18:05:54.545Z,2.96
2019-01-04T18:11:13.028Z,2.91
2019-01-04T18:16:31.612Z,3.06
2019-01-04T18:21:50.102Z,3.01
2019-01-04T18:27:08.660Z,3.02
2019-01-04T18:32:27.202Z,2.96
2019-01-04T18:37:45.992Z,2.99
2019-01-04T18:43:04.916Z,2.97
2019-01-04T18:48:23.477Z,3.02
2019-01-04T18:53:42.046Z,2.99
2019-01-04T18:59:00.844Z,2.97
2019-01-04T19:04:19.320Z,2.99
2019-01-04T19:09:37.805Z,3.00
2019-01-04T19:14:56.347Z,2.99
2019-01-04T19:20:14.896Z,2.95
2019-01-04T19:25:33.399Z,2.96
2019-01-04T19:30:51.932Z,2.98
2019-01-04T19:36:10.472Z,2.96
2019-01-04T19:41:28.945Z,2.94
2019-01-04T19:46:47.589Z,2.91
2019-01-04T19:52:06.434Z,2.96
2019-01-04T19:57:24.922Z,2.88
2019-01-04T20:02:43.715Z,2.94
2019-01-04T20:08:25.797Z,2.80
2019-01-04T20:14:26.524Z,2.83
2019-01-04T20:19:53.596Z,2.90
2019-01-04T20:25:22.769Z,2.87
2019-01-04T20:30:55.122Z,2.81
2019-01-04T20:36:31.525Z,2.80
2019-01-04T20:42:07.532Z,2.78
2019-01-04T20:47:43.064Z,2.76
2019-01-04T20:53:18.595Z,2.83
2019-01-04T20:58:55.263Z,2.88
2019-01-04T21:04:15.467Z,2.86
2019-01-04T21:09:35.930Z,2.83
2019-01-04T21:14:58.776Z,2.89
2019-01-04T21:20:21.692Z,2.86
2019-01-04T21:25:41.797Z,2.90
2019-01-04T21:31:17.883Z,2.95
2019-01-04T21:36:54.192Z,2.94
2019-01-04T21:42:30.481Z,3.06
2019-01-04T21:47:50.702Z,2.98
2019-01-04T21:53:27.092Z,2.98
2019-01-04T21:58:47.270Z,3.05
2019-01-04T22:04:13.181Z,3.17
2019-01-04T22:09:45.183Z,3.11
2019-01-04T22:15:17.706Z,3.11
2019-01-04T22:20:49.936Z,3.10
2019-01-04T22:26:26.709Z,3.08
2019-01-04T22:32:03.540Z,3.13
2019-01-04T22:37:38.579Z,3.15
2019-01-04T22:43:01.594Z,3.17
2019-01-04T22:48:21.757Z,3.16
2019-01-04T22:53:50.973Z,3.25
2019-01-04T22:59:16.659Z,3.26
2019-01-04T23:04:54.553Z,3.30
2019-01-04T23:10:14.909Z,3.41
2019-01-04T23:15:35.016Z,3.39
2019-01-04T23:20:55.210Z,3.42
2019-01-04T23:26:25.240Z,3.47
2019-01-04T23:32:03.787Z,3.50
2019-01-04T23:37:26.902Z,3.51
2019-01-04T23:43:02.326Z,3.51
2019-01-04T23:48:38.689Z,3.53
2019-01-04T23:54:05.248Z,3.58
2019-01-04T23:59:33.923Z,3.60
